Time;durP1;ratioP1;P1;durP2;ratioP2;P2;SDS_P1;SDS_P2;PMS_P1;PMS_P2;Temp;Humidity;BMP_temperature;BMP_pressure;BME280_temperature;BME280_humidity;BME280_pressure;Samples;Min_cycle;Max_cycle;Signal;HPM_P1;HPM_P2
2021/03/15 00:02:24;;;;;;;2.20;1.53;;;4.80;99.90;;;;;;5010113;28;20714;-67
2021/03/15 00:04:50;;;;;;;3.70;2.23;;;4.80;99.90;;;;;;5027118;28;20470;-69
2021/03/15 00:07:15;;;;;;;2.70;1.80;;;4.80;99.90;;;;;;4993912;28;20233;-68
2021/03/15 00:09:44;;;;;;;2.57;1.63;;;4.80;99.90;;;;;;5028202;28;20216;-69
2021/03/15 00:12:10;;;;;;;2.13;1.93;;;4.80;99.90;;;;;;5032388;28;20225;-70
2021/03/15 00:14:35;;;;;;;3.03;1.70;;;4.70;99.90;;;;;;5014938;28;20502;-69
2021/03/15 00:17:01;;;;;;;1.97;1.87;;;4.60;99.90;;;;;;4997975;28;20229;-68
2021/03/15 00:19:27;;;;;;;3.00;2.23;;;4.60;99.90;;;;;;5029679;28;20228;-68
2021/03/15 00:21:53;;;;;;;1.73;1.60;;;4.60;99.90;;;;;;5012104;28;20251;-69
2021/03/15 00:24:18;;;;;;;2.70;1.97;;;4.60;99.90;;;;;;5033374;28;20228;-69
2021/03/15 00:26:44;;;;;;;2.73;2.23;;;4.50;99.90;;;;;;5015063;28;20225;-70
2021/03/15 00:29:10;;;;;;;2.50;2.30;;;4.50;99.90;;;;;;5013829;28;20275;-69
2021/03/15 00:31:35;;;;;;;3.97;2.30;;;4.60;99.90;;;;;;5014154;28;20221;-68
2021/03/15 00:34:01;;;;;;;2.20;2.00;;;4.60;99.90;;;;;;4997829;28;20286;-69
2021/03/15 00:36:26;;;;;;;4.13;3.03;;;4.60;99.90;;;;;;5001912;28;20271;-70
2021/03/15 00:38:52;;;;;;;3.93;2.33;;;4.60;99.90;;;;;;5016809;28;20306;-69
2021/03/15 00:41:18;;;;;;;2.60;2.10;;;4.60;99.90;;;;;;5050281;28;20231;-68
2021/03/15 00:43:43;;;;;;;3.87;2.53;;;4.60;99.90;;;;;;5007065;28;20221;-69
2021/03/15 00:46:09;;;;;;;2.87;2.57;;;4.60;99.90;;;;;;5013728;28;20228;-69
2021/03/15 00:48:35;;;;;;;2.60;2.23;;;4.60;99.90;;;;;;5006857;28;20217;-69
2021/03/15 00:51:01;;;;;;;3.00;2.10;;;4.50;99.90;;;;;;5012995;28;20585;-70
2021/03/15 00:53:27;;;;;;;3.03;2.30;;;4.50;99.90;;;;;;5031899;28;20695;-68
2021/03/15 00:55:52;;;;;;;2.70;2.30;;;4.50;99.90;;;;;;5012707;28;20213;-69
2021/03/15 00:58:18;;;;;;;2.30;2.10;;;4.50;99.90;;;;;;5008627;28;20273;-69
2021/03/15 01:00:49;;;;;;;3.30;2.20;;;4.50;99.90;;;;;;4986376;28;20523;-69
2021/03/15 01:03:44;;;;;;;3.37;2.33;;;4.50;99.90;;;;;;5001581;28;20252;-67
2021/03/15 01:06:12;;;;;;;7.73;3.40;;;4.50;99.90;;;;;;5012806;28;20493;-67
2021/03/15 01:08:48;;;;;;;4.37;2.00;;;4.50;99.90;;;;;;5012170;28;20463;-67
2021/03/15 01:11:20;;;;;;;3.10;2.20;;;4.60;99.90;;;;;;5026024;28;20471;-68
2021/03/15 01:13:55;;;;;;;3.10;1.90;;;4.50;99.90;;;;;;4998322;28;20823;-68
2021/03/15 01:16:30;;;;;;;3.03;2.20;;;4.60;99.90;;;;;;4987432;28;20447;-67
2021/03/15 01:18:59;;;;;;;2.80;2.37;;;4.60;99.90;;;;;;5010495;28;20464;-67
2021/03/15 01:21:25;;;;;;;2.60;2.17;;;4.60;99.90;;;;;;5029354;28;20466;-68
2021/03/15 01:23:51;;;;;;;2.33;2.13;;;4.60;99.90;;;;;;5027026;28;20455;-68
2021/03/15 01:26:17;;;;;;;9.40;2.70;;;4.60;99.90;;;;;;5023974;28;20971;-68
2021/03/15 01:28:43;;;;;;;2.60;2.37;;;4.60;99.90;;;;;;5013373;28;20476;-70
2021/03/15 01:31:09;;;;;;;3.43;3.13;;;4.60;99.90;;;;;;5029517;28;20517;-68
2021/03/15 01:33:35;;;;;;;3.67;2.10;;;4.60;99.90;;;;;;5013321;28;20229;-68
2021/03/15 01:36:00;;;;;;;3.30;2.50;;;4.60;99.90;;;;;;4997793;28;20225;-68
2021/03/15 01:38:26;;;;;;;2.77;2.13;;;4.60;99.90;;;;;;5049280;28;20651;-69
2021/03/15 01:40:52;;;;;;;3.17;2.40;;;4.60;99.90;;;;;;5016601;28;20605;-68
2021/03/15 01:43:17;;;;;;;3.10;2.43;;;4.60;99.90;;;;;;5049221;28;20282;-68
2021/03/15 01:45:43;;;;;;;2.67;2.40;;;4.60;99.90;;;;;;5033082;28;20243;-68
2021/03/15 01:48:13;;;;;;;3.73;2.43;;;4.50;99.90;;;;;;5016169;28;20224;-67
2021/03/15 01:50:48;;;;;;;3.57;1.90;;;4.50;99.90;;;;;;5040819;28;20509;-68
2021/03/15 01:53:15;;;;;;;3.60;2.53;;;4.50;99.90;;;;;;5024111;28;20478;-69
2021/03/15 01:55:41;;;;;;;2.70;1.87;;;4.50;99.90;;;;;;5016616;28;20466;-68
2021/03/15 01:58:07;;;;;;;2.43;2.23;;;4.50;99.90;;;;;;5048847;28;20969;-69
2021/03/15 02:00:33;;;;;;;5.17;2.07;;;4.50;99.90;;;;;;5048942;28;20220;-68
2021/03/15 02:03:02;;;;;;;2.20;2.00;;;4.50;99.90;;;;;;5033030;28;20311;-68
2021/03/15 02:05:32;;;;;;;2.33;2.13;;;4.50;99.90;;;;;;5032921;28;20231;-71
2021/03/15 02:07:59;;;;;;;2.43;2.23;;;4.50;99.90;;;;;;5040429;28;20572;-67
2021/03/15 02:10:25;;;;;;;5.03;2.37;;;4.50;99.90;;;;;;5038791;28;20481;-68
2021/03/15 02:13:03;;;;;;;3.57;2.60;;;4.60;99.90;;;;;;5035288;28;20479;-68
2021/03/15 02:15:53;;;;;;;4.23;2.53;;;4.60;99.90;;;;;;5011858;28;20468;-68
2021/03/15 02:18:47;;;;;;;6.07;2.70;;;4.60;99.90;;;;;;5028550;28;20456;-67
2021/03/15 02:21:44;;;;;;;4.17;2.50;;;4.60;99.90;;;;;;5030571;28;20559;-67
2021/03/15 02:24:28;;;;;;;2.77;2.07;;;4.60;99.90;;;;;;5031218;28;20535;-69
2021/03/15 02:27:50;;;;;;;2.63;2.10;;;4.60;99.90;;;;;;5029217;28;20464;-68
2021/03/15 02:30:22;;;;;;;4.83;2.20;;;4.60;99.90;;;;;;4980634;28;20529;-67
2021/03/15 02:33:17;;;;;;;4.30;2.87;;;4.60;99.90;;;;;;5007906;28;20540;-69
2021/03/15 02:35:44;;;;;;;3.30;2.40;;;4.60;99.90;;;;;;5038167;28;20447;-68
2021/03/15 02:38:14;;;;;;;2.67;2.00;;;4.60;99.90;;;;;;5036187;28;20875;-67
2021/03/15 02:40:45;;;;;;;2.27;2.07;;;4.60;99.90;;;;;;4995728;28;20501;-68
2021/03/15 02:43:21;;;;;;;8.53;2.40;;;4.60;99.90;;;;;;5028270;28;20487;-68
2021/03/15 02:45:50;;;;;;;6.10;2.90;;;4.60;99.90;;;;;;5028641;28;20451;-67
2021/03/15 02:48:17;;;;;;;4.10;2.67;;;4.70;99.90;;;;;;5027818;28;20484;-67
2021/03/15 02:50:45;;;;;;;2.57;2.23;;;4.70;99.90;;;;;;5028072;28;20480;-69
2021/03/15 02:53:15;;;;;;;7.70;2.77;;;4.80;99.90;;;;;;5011657;28;20464;-68
2021/03/15 02:55:43;;;;;;;5.43;2.90;;;4.80;99.90;;;;;;5029989;28;20487;-70
2021/03/15 02:58:09;;;;;;;4.80;2.10;;;4.80;99.90;;;;;;4995046;28;21000;-69
2021/03/15 03:00:37;;;;;;;4.80;3.20;;;4.80;99.90;;;;;;4995502;28;20460;-69
2021/03/15 03:03:04;;;;;;;3.37;2.90;;;4.80;99.90;;;;;;4996199;28;20463;-69
2021/03/15 03:05:32;;;;;;;2.97;2.50;;;4.80;99.90;;;;;;5028140;28;20455;-70
2021/03/15 03:07:59;;;;;;;2.40;1.90;;;4.90;99.90;;;;;;5012188;28;20468;-69
2021/03/15 03:10:27;;;;;;;4.67;2.53;;;4.90;99.90;;;;;;5028269;28;20490;-69
2021/03/15 03:12:54;;;;;;;3.93;2.53;;;4.90;99.90;;;;;;5012022;28;20462;-69
2021/03/15 03:15:27;;;;;;;3.97;2.63;;;4.90;99.90;;;;;;4994845;28;20459;-70
2021/03/15 03:17:55;;;;;;;3.37;2.80;;;5.00;99.90;;;;;;5011925;28;20547;-70
2021/03/15 03:20:22;;;;;;;2.70;2.20;;;5.00;99.90;;;;;;4996276;28;20950;-69
2021/03/15 03:22:51;;;;;;;5.90;2.93;;;5.00;99.90;;;;;;5019751;28;21064;-70
2021/03/15 03:25:18;;;;;;;3.33;2.77;;;5.00;99.90;;;;;;4995078;28;20452;-69
2021/03/15 03:27:53;;;;;;;4.67;3.50;;;5.00;99.90;;;;;;5028846;28;20480;-70
2021/03/15 03:30:22;;;;;;;4.50;3.07;;;5.00;99.90;;;;;;5041683;28;20477;-72
2021/03/15 03:32:50;;;;;;;4.40;2.73;;;5.00;99.90;;;;;;5052203;28;20451;-73
2021/03/15 03:35:16;;;;;;;4.80;3.50;;;5.00;99.90;;;;;;5035203;28;20466;-72
2021/03/15 03:37:42;;;;;;;7.73;3.23;;;5.10;99.90;;;;;;5037385;28;20582;-71
2021/03/15 03:40:08;;;;;;;7.90;3.77;;;5.10;99.90;;;;;;4999023;28;20225;-69
2021/03/15 03:42:33;;;;;;;9.57;4.10;;;5.10;99.90;;;;;;4982891;28;20229;-70
2021/03/15 03:44:59;;;;;;;4.50;3.40;;;5.00;99.90;;;;;;4999166;28;20458;-72
2021/03/15 03:47:25;;;;;;;10.93;4.00;;;5.00;99.90;;;;;;4998634;28;20302;-72
2021/03/15 03:49:51;;;;;;;4.70;3.33;;;5.00;99.90;;;;;;5015618;28;20228;-72
2021/03/15 03:52:23;;;;;;;6.83;3.87;;;5.00;99.90;;;;;;5015030;28;20217;-72
2021/03/15 03:54:55;;;;;;;5.20;2.93;;;5.10;99.90;;;;;;5031570;28;20451;-69
2021/03/15 03:57:27;;;;;;;6.17;4.63;;;5.10;99.90;;;;;;5014698;28;20448;-69
2021/03/15 03:59:53;;;;;;;8.73;3.83;;;5.10;99.90;;;;;;4999367;28;20546;-69
2021/03/15 04:02:24;;;;;;;5.50;4.33;;;5.10;99.90;;;;;;4998460;28;20532;-69
2021/03/15 04:04:57;;;;;;;8.00;3.73;;;5.10;99.90;;;;;;5031757;28;20502;-72
2021/03/15 04:07:27;;;;;;;9.60;3.77;;;5.10;99.90;;;;;;5031165;28;20452;-72
2021/03/15 04:09:58;;;;;;;8.63;4.30;;;5.10;99.90;;;;;;5031322;28;20455;-71
2021/03/15 04:12:26;;;;;;;4.00;3.40;;;5.10;99.90;;;;;;5031305;28;20463;-72
2021/03/15 04:14:55;;;;;;;6.53;3.90;;;5.10;99.90;;;;;;4998752;28;20451;-72
2021/03/15 04:17:24;;;;;;;6.80;4.00;;;5.10;99.90;;;;;;4998013;28;20455;-71
2021/03/15 04:20:11;;;;;;;11.13;4.00;;;5.20;99.90;;;;;;4998250;28;20484;-71
2021/03/15 04:22:45;;;;;;;8.93;4.60;;;5.10;99.90;;;;;;5012709;28;20528;-72
2021/03/15 04:25:12;;;;;;;9.27;4.50;;;5.10;99.90;;;;;;5014161;28;20862;-72
2021/03/15 04:27:41;;;;;;;6.57;3.93;;;5.10;99.90;;;;;;5031174;28;20860;-72
2021/03/15 04:30:08;;;;;;;8.87;4.50;;;5.10;99.90;;;;;;5013792;28;20460;-72
2021/03/15 04:32:34;;;;;;;7.90;4.50;;;5.20;99.90;;;;;;5014634;28;20505;-72
2021/03/15 04:35:01;;;;;;;5.47;3.37;;;5.10;99.90;;;;;;4998533;28;20460;-71
2021/03/15 04:37:27;;;;;;;6.40;3.77;;;5.10;99.90;;;;;;5042843;28;20451;-72
2021/03/15 04:39:54;;;;;;;4.27;3.00;;;5.10;99.90;;;;;;5017182;28;20989;-72
2021/03/15 04:42:21;;;;;;;4.93;3.13;;;5.10;99.90;;;;;;5050704;28;20538;-71
2021/03/15 04:44:47;;;;;;;5.53;3.13;;;5.00;99.90;;;;;;5017835;28;20443;-69
2021/03/15 04:47:13;;;;;;;3.43;1.93;;;5.00;99.90;;;;;;5034075;28;20482;-70
2021/03/15 04:49:40;;;;;;;4.33;2.67;;;5.00;99.90;;;;;;5037966;28;20233;-70
2021/03/15 04:52:06;;;;;;;2.50;2.10;;;5.00;99.90;;;;;;5012523;28;20497;-69
2021/03/15 04:54:32;;;;;;;3.50;2.10;;;5.00;99.90;;;;;;4997791;28;20456;-69
2021/03/15 04:56:59;;;;;;;2.50;1.80;;;4.90;99.90;;;;;;5013873;28;20447;-69
2021/03/15 04:59:27;;;;;;;2.83;1.63;;;4.90;99.90;;;;;;5029612;28;20236;-70
2021/03/15 05:01:53;;;;;;;1.90;1.60;;;4.90;99.90;;;;;;5029807;28;20580;-69
2021/03/15 05:04:22;;;;;;;1.60;1.37;;;4.90;99.90;;;;;;5029498;28;20452;-69
2021/03/15 05:07:03;;;;;;;0.73;0.73;;;4.80;99.90;;;;;;5030101;28;20982;-69
2021/03/15 05:09:31;;;;;;;1.03;0.93;;;4.90;99.90;;;;;;5029454;28;20467;-67
2021/03/15 05:11:57;;;;;;;1.80;1.20;;;4.80;99.90;;;;;;4997784;28;20889;-70
2021/03/15 05:14:23;;;;;;;1.00;1.00;;;4.80;99.90;;;;;;5029927;28;20463;-68
2021/03/15 05:16:50;;;;;;;1.33;1.20;;;4.80;99.90;;;;;;5014087;28;20828;-69
2021/03/15 05:19:17;;;;;;;3.30;1.70;;;4.80;99.90;;;;;;5013483;28;20456;-69
2021/03/15 05:21:44;;;;;;;3.40;1.30;;;4.70;99.90;;;;;;5021437;28;20475;-69
2021/03/15 05:24:12;;;;;;;2.60;1.50;;;4.70;99.90;;;;;;4998004;28;20527;-69
2021/03/15 05:26:39;;;;;;;2.57;1.60;;;4.70;99.90;;;;;;5037492;28;20509;-69
2021/03/15 05:29:11;;;;;;;1.60;1.50;;;4.70;99.90;;;;;;5016451;28;20486;-67
2021/03/15 05:32:06;;;;;;;1.43;1.33;;;4.60;99.90;;;;;;5049004;28;20924;-69
2021/03/15 05:34:33;;;;;;;1.30;1.20;;;4.60;99.90;;;;;;5050877;28;20589;-69
2021/03/15 05:37:01;;;;;;;1.87;1.10;;;4.60;99.90;;;;;;5041094;28;20927;-69
2021/03/15 05:39:27;;;;;;;2.27;1.87;;;4.60;99.90;;;;;;4996815;28;20538;-68
2021/03/15 05:41:59;;;;;;;1.37;1.20;;;4.60;99.90;;;;;;4997245;28;20507;-69
2021/03/15 05:44:24;;;;;;;1.50;1.00;;;4.50;99.90;;;;;;5013209;28;20229;-68
2021/03/15 05:47:27;;;;;;;4.40;2.37;;;4.50;99.90;;;;;;5013343;28;20531;-69
2021/03/15 05:50:17;;;;;;;4.37;3.30;;;4.40;99.90;;;;;;5012535;28;20233;-69
2021/03/15 05:53:20;;;;;;;5.37;3.80;;;4.40;99.90;;;;;;5029536;28;20517;-69
2021/03/15 05:56:20;;;;;;;4.37;2.53;;;4.40;99.90;;;;;;5028938;28;20970;-67
2021/03/15 05:59:27;;;;;;;8.73;3.40;;;4.40;99.90;;;;;;5025597;28;20452;-69
2021/03/15 06:02:07;;;;;;;11.77;4.57;;;4.40;99.90;;;;;;4932125;28;20462;-68
2021/03/15 06:05:02;;;;;;;17.30;7.40;;;4.40;99.90;;;;;;4954849;28;20454;-69
2021/03/15 06:07:32;;;;;;;20.20;6.70;;;4.30;99.90;;;;;;5010823;28;20879;-69
2021/03/15 06:10:04;;;;;;;12.67;6.93;;;4.30;99.90;;;;;;5026254;28;21053;-69
2021/03/15 06:12:45;;;;;;;7.00;4.33;;;4.40;99.90;;;;;;5028141;28;20463;-69
2021/03/15 06:15:11;;;;;;;7.90;3.60;;;4.30;99.90;;;;;;5032628;28;20986;-68
2021/03/15 06:17:37;;;;;;;7.07;4.40;;;4.40;99.90;;;;;;4992119;28;20789;-67
2021/03/15 06:20:04;;;;;;;11.80;4.77;;;4.40;99.90;;;;;;5007882;28;20456;-68
2021/03/15 06:22:32;;;;;;;8.07;4.50;;;4.40;99.90;;;;;;5012573;28;20444;-69
2021/03/15 06:25:00;;;;;;;7.53;3.47;;;4.40;99.90;;;;;;5038235;28;20983;-69
2021/03/15 06:27:27;;;;;;;3.33;2.20;;;4.40;99.90;;;;;;5011450;28;20459;-68
2021/03/15 06:29:53;;;;;;;2.43;1.60;;;4.40;99.90;;;;;;4995443;28;20459;-71
2021/03/15 06:32:19;;;;;;;3.47;3.00;;;4.40;99.90;;;;;;5007417;28;20919;-69
2021/03/15 06:34:46;;;;;;;6.97;4.00;;;4.40;99.90;;;;;;5024678;28;20233;-69
2021/03/15 06:37:14;;;;;;;8.63;3.73;;;4.50;99.90;;;;;;5039629;28;21055;-69
2021/03/15 06:39:40;;;;;;;6.63;3.17;;;4.50;99.90;;;;;;5013858;28;20451;-68
2021/03/15 06:42:08;;;;;;;9.07;4.40;;;4.50;99.90;;;;;;5003749;28;20575;-68
2021/03/15 06:44:53;;;;;;;5.63;3.10;;;4.50;99.90;;;;;;5048210;28;20519;-69
2021/03/15 06:47:19;;;;;;;2.30;1.93;;;4.50;99.90;;;;;;5047878;28;20447;-66
2021/03/15 06:49:45;;;;;;;1.87;1.50;;;4.50;99.90;;;;;;5039627;28;20468;-69
2021/03/15 06:52:11;;;;;;;2.43;1.80;;;4.50;99.90;;;;;;5034430;28;20254;-68
2021/03/15 06:54:37;;;;;;;2.50;2.00;;;4.50;99.90;;;;;;5022149;28;20312;-69
2021/03/15 06:57:16;;;;;;;1.53;1.20;;;4.50;99.90;;;;;;4993816;28;20233;-68
2021/03/15 06:59:49;;;;;;;0.93;0.83;;;4.50;99.90;;;;;;5011096;28;20242;-66
2021/03/15 07:02:23;;;;;;;1.17;0.97;;;4.50;99.90;;;;;;5010581;28;20546;-69
2021/03/15 07:04:51;;;;;;;1.90;1.60;;;4.50;99.90;;;;;;4995221;28;20464;-69
2021/03/15 07:07:24;;;;;;;1.80;1.30;;;4.50;99.90;;;;;;5027048;28;20493;-69
2021/03/15 07:09:51;;;;;;;3.93;2.40;;;4.60;99.90;;;;;;4994756;28;20457;-69
2021/03/15 07:12:20;;;;;;;7.43;2.80;;;4.60;99.90;;;;;;4994472;28;20910;-68
2021/03/15 07:14:47;;;;;;;3.50;1.77;;;4.60;99.90;;;;;;5027152;28;20451;-69
2021/03/15 07:17:24;;;;;;;7.20;2.20;;;4.60;99.90;;;;;;5028667;28;20525;-69
2021/03/15 07:19:50;;;;;;;3.90;2.43;;;4.60;99.90;;;;;;5010310;28;20448;-69
2021/03/15 07:22:27;;;;;;;2.63;1.97;;;4.60;99.90;;;;;;5028222;28;20447;-68
2021/03/15 07:25:13;;;;;;;2.13;1.90;;;4.70;99.90;;;;;;5032277;28;21039;-69
2021/03/15 07:27:41;;;;;;;10.50;3.47;;;4.70;99.90;;;;;;4992202;28;20458;-70
2021/03/15 07:30:29;;;;;;;4.20;2.20;;;4.70;99.90;;;;;;5031902;28;20531;-69
2021/03/15 07:33:00;;;;;;;2.30;2.03;;;4.80;99.90;;;;;;5047145;28;20455;-69
2021/03/15 07:35:31;;;;;;;1.07;0.97;;;4.80;99.90;;;;;;5030142;28;20451;-69
2021/03/15 07:37:57;;;;;;;1.67;1.57;;;4.80;99.90;;;;;;5029371;28;20826;-70
2021/03/15 07:40:30;;;;;;;1.80;1.30;;;4.80;99.90;;;;;;5025859;28;20460;-69
2021/03/15 07:43:14;;;;;;;1.87;1.40;;;4.80;99.90;;;;;;4993845;28;20251;-69
2021/03/15 07:45:44;;;;;;;1.10;1.00;;;4.80;99.90;;;;;;5009993;28;20459;-69
2021/03/15 07:48:18;;;;;;;1.57;1.40;;;4.90;99.90;;;;;;5025234;28;20902;-70
2021/03/15 07:51:03;;;;;;;1.70;1.60;;;4.90;99.90;;;;;;5010006;28;20915;-68
2021/03/15 07:53:42;;;;;;;2.23;2.10;;;4.90;99.90;;;;;;5009268;28;20444;-72
2021/03/15 07:56:17;;;;;;;3.30;2.30;;;4.90;99.90;;;;;;5024859;28;20463;-70
2021/03/15 07:58:43;;;;;;;2.50;2.30;;;5.00;99.90;;;;;;5000375;28;20459;-68
2021/03/15 08:01:10;;;;;;;1.33;1.23;;;5.00;99.90;;;;;;5015486;28;20818;-68
2021/03/15 08:03:37;;;;;;;1.07;0.80;;;5.00;99.90;;;;;;5007696;28;20990;-68
2021/03/15 08:06:04;;;;;;;0.77;0.77;;;5.00;99.90;;;;;;4988596;28;20831;-68
2021/03/15 08:08:30;;;;;;;0.80;0.80;;;5.10;99.90;;;;;;4987727;28;20456;-68
2021/03/15 08:10:56;;;;;;;0.93;0.93;;;5.10;99.90;;;;;;4988140;28;20879;-70
2021/03/15 08:13:24;;;;;;;1.33;1.10;;;5.10;99.90;;;;;;5021612;28;20233;-68
2021/03/15 08:15:52;;;;;;;5.80;1.60;;;5.10;99.90;;;;;;5028024;28;20470;-67
2021/03/15 08:18:26;;;;;;;1.37;1.23;;;5.20;99.90;;;;;;5043700;28;20448;-70
2021/03/15 08:21:18;;;;;;;1.73;1.30;;;5.20;99.90;;;;;;5011966;28;20542;-71
2021/03/15 08:23:45;;;;;;;1.00;0.90;;;5.30;99.90;;;;;;5006274;28;20498;-72
2021/03/15 08:26:15;;;;;;;1.87;1.13;;;5.40;99.90;;;;;;5026797;28;20464;-71
2021/03/15 08:28:43;;;;;;;1.37;1.23;;;5.40;99.90;;;;;;5030492;28;20531;-71
2021/03/15 08:31:14;;;;;;;1.03;1.00;;;5.50;99.90;;;;;;4996918;28;20462;-70
2021/03/15 08:33:40;;;;;;;1.43;0.87;;;5.50;99.90;;;;;;4994548;28;20532;-74
2021/03/15 08:36:07;;;;;;;1.10;0.83;;;5.50;99.90;;;;;;5018987;28;20902;-71
2021/03/15 08:38:34;;;;;;;1.77;1.00;;;5.60;99.90;;;;;;4994394;28;20447;-72
2021/03/15 08:41:08;;;;;;;1.00;0.77;;;5.70;99.90;;;;;;5027270;28;20901;-70
2021/03/15 08:43:37;;;;;;;0.73;0.50;;;5.90;99.90;;;;;;4994394;28;20531;-71
2021/03/15 08:46:15;;;;;;;0.60;0.50;;;6.10;99.90;;;;;;5011382;28;20513;-73
2021/03/15 08:48:40;;;;;;;0.60;0.60;;;6.70;99.90;;;;;;5009330;28;20625;-71
2021/03/15 08:51:36;;;;;;;0.80;0.80;;;6.70;99.90;;;;;;5006943;28;20531;-71
2021/03/15 08:54:06;;;;;;;1.00;0.73;;;6.40;99.90;;;;;;5024010;28;20839;-71
2021/03/15 08:56:31;;;;;;;0.53;0.53;;;6.40;99.90;;;;;;4997810;28;20459;-71
2021/03/15 08:59:02;;;;;;;0.60;0.60;;;6.40;99.90;;;;;;5013413;28;20462;-72
2021/03/15 09:01:46;;;;;;;0.70;0.47;;;6.40;99.90;;;;;;5030050;28;20225;-71
2021/03/15 09:04:33;;;;;;;1.10;0.77;;;6.40;99.90;;;;;;5028417;28;20452;-72
2021/03/15 09:07:04;;;;;;;7.23;6.70;;;6.40;99.90;;;;;;5028934;28;20451;-71
2021/03/15 09:09:30;;;;;;;2.77;2.60;;;6.40;99.90;;;;;;5028555;28;20535;-71
2021/03/15 09:12:03;;;;;;;1.30;1.20;;;6.50;99.90;;;;;;5013521;28;20459;-71
2021/03/15 09:14:36;;;;;;;1.03;1.03;;;6.50;99.90;;;;;;4988408;28;20444;-71
2021/03/15 09:17:14;;;;;;;1.00;0.90;;;6.50;99.90;;;;;;5009860;28;20600;-70
2021/03/15 09:19:41;;;;;;;1.20;1.20;;;6.60;99.90;;;;;;5029262;28;20973;-72
2021/03/15 09:22:25;;;;;;;0.77;0.77;;;6.60;99.90;;;;;;5018816;28;20449;-72
2021/03/15 09:25:01;;;;;;;1.53;0.80;;;6.70;99.90;;;;;;4993316;28;20477;-72
2021/03/15 09:27:41;;;;;;;1.30;1.20;;;6.70;99.90;;;;;;5021958;28;20465;-72
2021/03/15 09:30:16;;;;;;;1.33;1.20;;;6.70;99.90;;;;;;5048814;28;20510;-72
2021/03/15 09:32:48;;;;;;;1.63;1.40;;;6.70;99.90;;;;;;5049313;28;20482;-71
2021/03/15 09:35:26;;;;;;;2.37;1.20;;;6.70;99.90;;;;;;5048563;28;20447;-70
2021/03/15 09:38:13;;;;;;;1.40;1.30;;;6.60;99.90;;;;;;5032317;28;20489;-70
2021/03/15 09:40:45;;;;;;;2.67;1.47;;;6.70;99.90;;;;;;5032142;28;20448;-71
2021/03/15 09:43:28;;;;;;;1.00;1.00;;;6.70;99.90;;;;;;5048679;28;20455;-71
2021/03/15 09:46:00;;;;;;;1.57;1.47;;;6.80;99.90;;;;;;5050198;28;20878;-71
2021/03/15 09:48:28;;;;;;;3.43;1.70;;;6.80;99.90;;;;;;5047863;28;20498;-72
2021/03/15 09:51:01;;;;;;;2.97;1.23;;;6.70;99.90;;;;;;5009715;28;20459;-71
2021/03/15 09:53:49;;;;;;;1.77;1.57;;;6.70;99.90;;;;;;4994910;28;20497;-72
2021/03/15 09:56:23;;;;;;;2.00;1.13;;;6.70;99.90;;;;;;4990171;28;20527;-72
2021/03/15 09:58:55;;;;;;;1.53;1.00;;;6.70;99.90;;;;;;5005888;28;20454;-71
2021/03/15 10:01:23;;;;;;;2.10;1.50;;;6.70;99.90;;;;;;4989825;28;20444;-71
2021/03/15 10:04:34;;;;;;;3.40;1.93;;;6.70;99.90;;;;;;5004867;28;20447;-72
2021/03/15 10:07:15;;;;;;;3.23;2.30;;;6.70;99.90;;;;;;5018262;28;20517;-72
2021/03/15 10:10:11;;;;;;;1.50;1.30;;;6.70;99.90;;;;;;4993377;28;20515;-72
2021/03/15 10:13:06;;;;;;;1.67;1.40;;;6.80;99.90;;;;;;5022333;28;20590;-72
2021/03/15 10:15:46;;;;;;;1.00;1.00;;;6.80;99.90;;;;;;5027936;28;20463;-72
2021/03/15 10:18:26;;;;;;;2.90;1.90;;;6.90;99.90;;;;;;5012879;28;20452;-72
2021/03/15 10:20:55;;;;;;;2.73;2.40;;;6.90;99.90;;;;;;5013283;28;20451;-71
2021/03/15 10:23:32;;;;;;;3.43;2.80;;;7.00;99.90;;;;;;5008403;28;20477;-72
2021/03/15 10:26:03;;;;;;;2.93;2.03;;;7.00;99.90;;;;;;5037809;28;20467;-70
2021/03/15 10:28:40;;;;;;;3.27;2.50;;;7.00;99.90;;;;;;5027071;28;20455;-71
2021/03/15 10:31:09;;;;;;;4.83;2.90;;;7.00;99.90;;;;;;5010684;28;20460;-72
2021/03/15 10:33:46;;;;;;;4.73;1.90;;;7.00;99.90;;;;;;5027616;28;20475;-72
2021/03/15 10:36:20;;;;;;;2.80;2.00;;;7.10;99.90;;;;;;5012453;28;20471;-72
2021/03/15 10:38:55;;;;;;;3.07;2.53;;;7.10;99.90;;;;;;5046005;28;20458;-71
2021/03/15 10:41:21;;;;;;;5.93;2.47;;;7.10;99.90;;;;;;5014138;28;20447;-71
2021/03/15 10:43:48;;;;;;;2.67;1.80;;;7.20;99.90;;;;;;5014292;28;20492;-71
2021/03/15 10:46:24;;;;;;;3.70;2.67;;;7.20;99.90;;;;;;5031485;28;20530;-71
2021/03/15 10:48:54;;;;;;;3.70;2.30;;;7.30;99.90;;;;;;5014058;28;20479;-71
2021/03/15 10:51:21;;;;;;;3.97;2.53;;;7.40;99.90;;;;;;5029188;28;20462;-71
2021/03/15 10:53:53;;;;;;;6.00;3.27;;;7.40;99.90;;;;;;5046898;28;20455;-71
2021/03/15 10:56:27;;;;;;;4.40;2.17;;;7.40;99.90;;;;;;5030897;28;20446;-72
2021/03/15 10:58:58;;;;;;;4.20;3.40;;;7.40;99.90;;;;;;5014796;28;20542;-71
2021/03/15 11:01:28;;;;;;;6.17;3.20;;;7.60;99.90;;;;;;5013576;28;20470;-70
2021/03/15 11:04:10;;;;;;;14.77;6.30;;;7.60;99.90;;;;;;5015524;28;20836;-71
2021/03/15 11:06:42;;;;;;;11.27;5.30;;;7.80;99.90;;;;;;5030932;28;20451;-71
2021/03/15 11:09:23;;;;;;;5.60;4.30;;;7.90;99.90;;;;;;5017052;28;20466;-71
2021/03/15 11:11:54;;;;;;;6.50;4.30;;;7.90;99.90;;;;;;5040907;28;20456;-71
2021/03/15 11:14:23;;;;;;;8.17;4.80;;;8.00;99.90;;;;;;5009794;28;20489;-72
2021/03/15 11:17:01;;;;;;;4.90;3.43;;;8.00;99.90;;;;;;4997748;28;20478;-71
2021/03/15 11:19:31;;;;;;;4.80;3.50;;;8.00;99.90;;;;;;5011293;28;20448;-71
2021/03/15 11:21:57;;;;;;;3.00;2.70;;;8.10;99.90;;;;;;4999288;28;20453;-71
2021/03/15 11:24:28;;;;;;;3.67;2.13;;;8.00;99.90;;;;;;4991776;28;20459;-71
2021/03/15 11:27:32;;;;;;;4.30;2.57;;;8.00;99.90;;;;;;5008424;28;20513;-70
2021/03/15 11:29:59;;;;;;;3.23;2.30;;;7.90;99.90;;;;;;5045875;28;21009;-71
2021/03/15 11:32:46;;;;;;;2.90;2.57;;;7.80;99.90;;;;;;5046236;28;20526;-70
2021/03/15 11:35:26;;;;;;;3.50;2.57;;;7.80;99.90;;;;;;5016769;28;20593;-71
2021/03/15 11:38:12;;;;;;;2.67;1.60;;;7.90;99.90;;;;;;5025369;28;20460;-71
2021/03/15 11:40:48;;;;;;;4.70;2.70;;;7.90;99.90;;;;;;5009827;28;20498;-69
2021/03/15 11:43:17;;;;;;;2.30;2.03;;;7.90;99.90;;;;;;4988593;28;20456;-70
2021/03/15 11:45:52;;;;;;;2.50;2.30;;;7.90;99.90;;;;;;5024893;28;20460;-71
2021/03/15 11:48:18;;;;;;;2.90;2.50;;;8.00;99.90;;;;;;5026210;28;20486;-69
2021/03/15 11:50:51;;;;;;;2.60;1.93;;;8.10;99.90;;;;;;4999696;28;20221;-71
2021/03/15 11:53:24;;;;;;;2.47;2.27;;;8.10;99.90;;;;;;5015318;28;20860;-71
2021/03/15 11:55:51;;;;;;;1.57;1.43;;;8.10;99.90;;;;;;4998497;28;20526;-71
2021/03/15 11:58:17;;;;;;;10.83;1.67;;;8.10;99.90;;;;;;4997422;28;20539;-71
2021/03/15 12:00:43;;;;;;;1.53;1.43;;;8.00;99.90;;;;;;4996781;28;20820;-71
2021/03/15 12:03:35;;;;;;;3.10;1.77;;;8.00;99.90;;;;;;5024047;28;20247;-72
2021/03/15 12:06:19;;;;;;;2.40;1.70;;;7.90;99.90;;;;;;5016590;28;20486;-71
2021/03/15 12:09:00;;;;;;;1.80;1.23;;;8.00;99.90;;;;;;5002724;28;20463;-71
2021/03/15 12:11:26;;;;;;;1.03;0.80;;;7.90;99.90;;;;;;4997637;28;20542;-72
2021/03/15 12:13:51;;;;;;;2.77;1.97;;;7.90;99.90;;;;;;5014831;28;20483;-72
2021/03/15 12:16:18;;;;;;;2.77;1.60;;;8.00;99.90;;;;;;5014707;28;20226;-70
2021/03/15 12:18:47;;;;;;;1.87;1.60;;;8.00;99.90;;;;;;5014751;28;20444;-71
2021/03/15 12:21:13;;;;;;;1.67;0.80;;;8.00;99.90;;;;;;5009479;28;20327;-72
2021/03/15 12:23:44;;;;;;;2.23;2.03;;;8.00;99.90;;;;;;5001688;28;20535;-72
2021/03/15 12:26:10;;;;;;;1.50;1.40;;;7.90;99.90;;;;;;5010393;28;20495;-71
2021/03/15 12:28:41;;;;;;;1.77;1.40;;;7.90;99.90;;;;;;5010588;28;20667;-70
2021/03/15 12:31:23;;;;;;;2.53;1.27;;;7.90;99.90;;;;;;4995519;28;20460;-71
2021/03/15 12:33:52;;;;;;;3.33;1.70;;;7.90;99.90;;;;;;4994573;28;20535;-71
2021/03/15 12:36:18;;;;;;;1.37;1.27;;;7.90;99.90;;;;;;5016111;28;20613;-71
2021/03/15 12:38:45;;;;;;;2.10;1.30;;;8.00;99.90;;;;;;5033852;28;20463;-71
2021/03/15 12:41:11;;;;;;;1.53;0.93;;;8.00;99.90;;;;;;5016539;28;20528;-71
2021/03/15 12:43:37;;;;;;;2.20;1.13;;;8.10;99.90;;;;;;5017393;28;20224;-70
2021/03/15 12:46:18;;;;;;;2.30;2.10;;;8.20;99.90;;;;;;5019074;28;20455;-71
2021/03/15 12:48:48;;;;;;;2.70;1.90;;;8.20;99.90;;;;;;5017507;28;20546;-71
2021/03/15 12:51:14;;;;;;;1.40;1.30;;;8.30;99.90;;;;;;5049316;28;20459;-70
2021/03/15 12:53:40;;;;;;;1.50;1.40;;;8.30;99.90;;;;;;5050046;28;20486;-71
2021/03/15 12:56:16;;;;;;;1.20;1.03;;;8.30;99.90;;;;;;5049515;28;20451;-71
2021/03/15 12:58:42;;;;;;;2.17;1.70;;;8.40;99.90;;;;;;5049611;28;20466;-72
2021/03/15 13:01:15;;;;;;;0.93;0.87;;;8.40;99.90;;;;;;5017676;28;20474;-72
2021/03/15 13:03:53;;;;;;;2.70;1.40;;;8.40;99.90;;;;;;5019744;28;20466;-71
2021/03/15 13:06:22;;;;;;;1.77;1.67;;;8.40;99.90;;;;;;5049242;28;20529;-71
2021/03/15 13:08:59;;;;;;;2.60;1.93;;;8.40;99.90;;;;;;5019159;28;20542;-71
2021/03/15 13:11:28;;;;;;;2.40;1.63;;;8.40;99.90;;;;;;5030875;28;20449;-72
2021/03/15 13:14:15;;;;;;;1.67;1.57;;;8.50;99.90;;;;;;5014134;28;20482;-71
2021/03/15 13:16:50;;;;;;;1.63;1.30;;;8.50;99.90;;;;;;4999917;28;20458;-71
2021/03/15 13:19:15;;;;;;;4.10;2.17;;;8.60;99.90;;;;;;5028995;28;20448;-71
2021/03/15 13:21:41;;;;;;;2.27;1.80;;;8.70;99.90;;;;;;5014303;28;20703;-70
2021/03/15 13:24:08;;;;;;;2.07;1.00;;;8.90;99.90;;;;;;5031497;28;20232;-71